GCLA/SPC METAR and TAF weather

Enter ICAO airport designator
Station Type Date Time Source
GCLA METAR 2019/02/23 03:00 UTC NOAA

GCLA 230300Z AUTO 31003KT 280V030 9999 NCD 17/04 Q1022


Station Type Date Time Source
GCLA Decoded METAR 2019/02/23 03:00 UTC NOAA

La Palma / Aeropuerto, Spain (GCLA) 28-37N 017-45W 31M
Feb 22, 2019 - 10:00 PM EST / 2019.02.23 0300 UTC
Wind: from the NW (310 degrees) at 3 MPH (3 KT) (direction variable):0
Visibility: greater than 7 mile(s):0
Temperature: 62 F (17 C)
Dew Point: 39 F (4 C)
Relative Humidity: 41%
Pressure (altimeter): 30.18 in. Hg (1022 hPa)
ob: GCLA 230300Z AUTO 31003KT 280V030 9999 NCD 17/04 Q1022
cycle: 3

Station Type Date Time Source
GCLA TAF 2019/02/23 03:30 UTC NOAA

TAF GCLA 230200Z 2303/2403 31005KT CAVOK TX27/2314Z TN15/2306Z


Example: see airport list